ADDS METAR Data INFO
IDs: Format: Raw Decoded Include TAF

Data at: 1131 UTC 29 May 2017

METAR for:PADU (Dutch Harbor/Madsen, AK, US)
Text:PADU 291056Z AUTO 16003KT 10SM OVC034 06/03 A2979 RMK AO2 SLP088 T00560028
Temperature: 5.6°C ( 42°F)
Dewpoint: 2.8°C ( 37°F) [RH = 82%]
Pressure (altimeter):29.79 inches Hg (1008.9 mb) [Sea level pressure: 1008.8 mb]
Winds:from the SSE (160 degrees) at 3 MPH (3 knots; 1.5 m/s)
Visibility:10 or more sm (16+ km)
Ceiling:3400 feet AGL
Clouds: overcast cloud deck at 3400 feet AGL
QC Flag:automated observation with no human augmentation
Text:PADU 290956Z AUTO 16005KT 10SM FEW020 06/02 A2978 RMK AO2 SLP085 T00610022
Temperature: 6.1°C ( 43°F)
Dewpoint: 2.2°C ( 36°F) [RH = 76%]
Pressure (altimeter):29.78 inches Hg (1008.5 mb) [Sea level pressure: 1008.5 mb]
Winds:from the SSE (160 degrees) at 6 MPH (5 knots; 2.6 m/s)
Visibility:10 or more sm (16+ km)
Ceiling:at least 12,000 feet AGL
Clouds: few clouds at 2000 feet AGL
QC Flag:automated observation with no human augmentation
Text:PADU 290939Z AUTO 13009KT 10SM SCT028 SCT032 06/02 A2978 RMK AO2
Temperature: 6.0°C ( 43°F)
Dewpoint: 2.0°C ( 36°F) [RH = 75%]
Pressure (altimeter):29.78 inches Hg (1008.5 mb)
Winds:from the SE (130 degrees) at 10 MPH (9 knots; 4.6 m/s)
Visibility:10 or more sm (16+ km)
Ceiling:at least 12,000 feet AGL
Clouds: scattered clouds at 2800 feet AGL, scattered clouds at 3200 feet AGL
QC Flag:automated observation with no human augmentation
Text:PADU 290926Z AUTO 13009KT 10SM BKN026 BKN031 06/02 A2978 RMK AO2
Temperature: 6.0°C ( 43°F)
Dewpoint: 2.0°C ( 36°F) [RH = 75%]
Pressure (altimeter):29.78 inches Hg (1008.5 mb)
Winds:from the SE (130 degrees) at 10 MPH (9 knots; 4.6 m/s)
Visibility:10 or more sm (16+ km)
Ceiling:2600 feet AGL
Clouds: broken clouds at 2600 feet AGL, broken clouds at 3100 feet AGL
QC Flag:automated observation with no human augmentation
Text:PADU 290856Z AUTO 13007KT 10SM SCT023 OVC045 06/02 A2978 RMK AO2 RAB05E25 SLP085 P0000 60000 T00610022 51002
Temperature: 6.1°C ( 43°F)
Dewpoint: 2.2°C ( 36°F) [RH = 76%]
Pressure (altimeter):29.78 inches Hg (1008.5 mb) [Sea level pressure: 1008.5 mb]
Winds:from the SE (130 degrees) at 8 MPH (7 knots; 3.6 m/s)
Visibility:10 or more sm (16+ km)
Ceiling:4500 feet AGL
Clouds: scattered clouds at 2300 feet AGL, overcast cloud deck at 4500 feet AGL
QC Flag:automated observation with no human augmentation
Text:PADU 290756Z AUTO 15007KT 10SM BKN022 BKN027 OVC037 06/03 A2978 RMK AO2 RAB0657E56 SLP085 P0000 T00610028 400830022
Temperature: 6.1°C ( 43°F)
Dewpoint: 2.8°C ( 37°F) [RH = 79%]
Pressure (altimeter):29.78 inches Hg (1008.5 mb) [Sea level pressure: 1008.5 mb]
Winds:from the SSE (150 degrees) at 8 MPH (7 knots; 3.6 m/s)
Visibility:10 or more sm (16+ km)
Ceiling:2200 feet AGL
Clouds: broken clouds at 2200 feet AGL, broken clouds at 2700 feet AGL, overcast cloud deck at 3700 feet AGL
QC Flag:automated observation with no human augmentation
Text:PADU 290656Z AUTO 12006KT 10SM BKN024 OVC033 07/03 A2978 RMK AO2 RAB08E54 SLP083 P0000 T00670028
Temperature: 6.7°C ( 44°F)
Dewpoint: 2.8°C ( 37°F) [RH = 76%]
Pressure (altimeter):29.78 inches Hg (1008.5 mb) [Sea level pressure: 1008.3 mb]
Winds:from the ESE (120 degrees) at 7 MPH (6 knots; 3.1 m/s)
Visibility:10 or more sm (16+ km)
Ceiling:2400 feet AGL
Clouds: broken clouds at 2400 feet AGL, overcast cloud deck at 3300 feet AGL
QC Flag:automated observation with no human augmentation
Text:PADU 290634Z AUTO 12005KT 10SM -RA BKN024 OVC037 06/03 A2977 RMK AO2 RAB08 P0000
Temperature: 6.0°C ( 43°F)
Dewpoint: 3.0°C ( 37°F) [RH = 81%]
Pressure (altimeter):29.77 inches Hg (1008.2 mb)
Winds:from the ESE (120 degrees) at 6 MPH (5 knots; 2.6 m/s)
Visibility:10 or more sm (16+ km)
Ceiling:2400 feet AGL
Clouds: broken clouds at 2400 feet AGL, overcast cloud deck at 3700 feet AGL
Weather:-RA (light rain)
QC Flag:automated observation with no human augmentation
Text:PADU 290556Z AUTO 12009KT 10SM FEW024 OVC041 07/03 A2977 RMK AO2 RAE09B31E44 SLP082 P0000 60001 T00670028 10083 20061 53003
Temperature: 6.7°C ( 44°F)
Dewpoint: 2.8°C ( 37°F) [RH = 76%]
Pressure (altimeter):29.77 inches Hg (1008.2 mb) [Sea level pressure: 1008.2 mb]
Winds:from the ESE (120 degrees) at 10 MPH (9 knots; 4.6 m/s)
Visibility:10 or more sm (16+ km)
Ceiling:4100 feet AGL
Clouds: few clouds at 2400 feet AGL, overcast cloud deck at 4100 feet AGL
QC Flag:automated observation with no human augmentation

TAF for:PADU (Dutch Harbor/Madsen, AK, US) issued at 0539 UTC 29 May 2017
Text:PADU 290539Z 2906/3006 11006KT P6SM BKN022 OVC030
Forecast period:0600 to 1800 UTC 29 May 2017
Forecast type:FROM: standard forecast or significant change
Winds:from the ESE (110 degrees) at 7 MPH (6 knots; 3.1 m/s)
Visibility:6 or more sm (10+ km)
Ceiling:2200 feet AGL
Clouds: broken clouds at 2200 feet AGL, overcast cloud deck at 3000 feet AGL
Text:TEMPO 2906/2908 SCT022 OVC040
Forecast period:0600 to 0800 UTC 29 May 2017
Forecast type:TEMPORARY: The following changes expected for less than half the time period
Ceiling:4000 feet AGL
Clouds: scattered clouds at 2200 feet AGL, overcast cloud deck at 4000 feet AGL
Text:FM291800 11009G18KT P6SM BKN025 OVC040
Forecast period:1800 UTC 29 May 2017 to 0600 UTC 30 May 2017
Forecast type:FROM: standard forecast or significant change
Winds:from the ESE (110 degrees) at 10 MPH (9 knots; 4.6 m/s) gusting to 21 MPH (18 knots; 9.3 m/s)
Visibility:6 or more sm (10+ km)
Ceiling:2500 feet AGL
Clouds: broken clouds at 2500 feet AGL, overcast cloud deck at 4000 feet AGL


Page loaded:  11:31 UTC  |   04:31 AM Pacific  |   05:31 AM Mountain  |   06:31 AM Central  |   07:31 AM Eastern

 

ADVISORIES

FORECASTS

FORECASTS

OBSERVATIONS

USER TOOLS

ABOUT US